createdAt,value
2018-02-01T00:01:43.368Z,36.53
2018-02-01T00:04:14.563Z,30.98
2018-02-01T00:06:43.560Z,23.23
2018-02-01T00:09:13.332Z,33.45
2018-02-01T00:11:42.261Z,29.58
2018-02-01T00:14:12.107Z,25.17
2018-02-01T00:16:43.477Z,34.33
2018-02-01T00:19:13.157Z,37.97
2018-02-01T00:21:42.232Z,26.98
2018-02-01T00:24:11.210Z,35.47
2018-02-01T00:26:40.200Z,38.92
2018-02-01T00:29:09.121Z,32.95
2018-02-01T00:37:40.055Z,32.00
2018-02-01T00:40:08.895Z,33.22
2018-02-01T00:42:38.936Z,32.55
2018-02-01T00:45:08.010Z,30.95
2018-02-01T00:47:37.000Z,28.42
2018-02-01T00:50:07.014Z,37.58
2018-02-01T00:52:36.055Z,32.92
2018-02-01T00:55:05.209Z,41.95
2018-02-01T00:57:34.405Z,42.55
2018-02-01T01:00:05.888Z,29.50
2018-02-01T01:02:35.029Z,29.10
2018-02-01T01:05:04.634Z,26.77
2018-02-01T01:07:33.640Z,27.17
2018-02-01T01:10:03.379Z,26.42
2018-02-01T01:12:33.217Z,41.30
2018-02-01T01:15:04.154Z,55.63
2018-02-01T01:17:33.116Z,50.05
2018-02-01T01:20:01.928Z,48.53
2018-02-01T01:22:34.482Z,41.80
2018-02-01T01:25:03.576Z,39.05
2018-02-01T01:27:32.568Z,27.42
2018-02-01T01:30:02.623Z,23.52
2018-02-01T01:32:31.512Z,26.02
2018-02-01T01:35:00.432Z,25.77
2018-02-01T01:37:31.206Z,23.95
2018-02-01T01:40:00.300Z,30.45
2018-02-01T01:42:29.195Z,34.20
2018-02-01T01:45:00.842Z,32.17
2018-02-01T01:47:29.771Z,32.55
2018-02-01T01:49:58.665Z,28.45
2018-02-01T01:52:29.544Z,32.08
2018-02-01T01:54:58.601Z,28.45
2018-02-01T01:57:27.660Z,31.50
2018-02-01T01:59:56.796Z,29.52
2018-02-01T02:02:25.846Z,23.87
2018-02-01T02:04:55.668Z,22.35
2018-02-01T02:07:26.360Z,22.05
2018-02-01T02:09:55.600Z,20.75
2018-02-01T02:12:26.215Z,22.20
2018-02-01T02:14:57.790Z,27.80
2018-02-01T02:17:27.183Z,25.83
2018-02-01T02:19:57.203Z,24.15
2018-02-01T02:22:27.636Z,25.55
2018-02-01T02:24:57.753Z,26.48
2018-02-01T02:27:27.683Z,23.17
2018-02-01T02:29:57.478Z,23.58
2018-02-01T02:32:27.494Z,18.90
2018-02-01T02:34:59.969Z,19.95
2018-02-01T02:37:29.069Z,21.08
2018-02-01T02:39:58.202Z,19.48
2018-02-01T02:42:28.627Z,18.55
2018-02-01T02:44:57.624Z,19.15
2018-02-01T02:47:26.612Z,17.08
2018-02-01T02:49:56.437Z,23.80
2018-02-01T02:52:25.337Z,21.70
2018-02-01T02:54:54.888Z,21.25
2018-02-01T02:57:24.909Z,21.65
2018-02-01T02:59:55.643Z,26.42
2018-02-01T03:02:24.666Z,15.45
2018-02-01T03:04:56.086Z,17.60
2018-02-01T03:07:26.207Z,15.85
2018-02-01T03:09:56.392Z,28.00
2018-02-01T03:12:25.402Z,15.10
2018-02-01T03:14:54.515Z,19.37
2018-02-01T03:17:23.825Z,16.30
2018-02-01T03:19:53.766Z,24.17
2018-02-01T03:22:23.547Z,26.15
2018-02-01T03:24:53.362Z,26.60
2018-02-01T03:27:22.352Z,24.48
2018-02-01T03:29:53.633Z,18.65
2018-02-01T03:32:25.359Z,19.10
2018-02-01T03:34:55.070Z,26.42
2018-02-01T03:37:24.092Z,19.85
2018-02-01T03:39:54.010Z,22.70
2018-02-01T03:42:23.071Z,19.48
2018-02-01T03:44:54.999Z,15.00
2018-02-01T03:47:24.064Z,17.92
2018-02-01T03:49:53.129Z,12.20
2018-02-01T03:52:22.210Z,14.52
2018-02-01T03:54:51.333Z,14.02
2018-02-01T03:57:23.221Z,17.77
2018-02-01T03:59:52.274Z,20.92
2018-02-01T04:02:22.393Z,17.50
2018-02-01T04:04:51.592Z,45.80
2018-02-01T04:07:22.299Z,46.53
2018-02-01T04:09:51.244Z,43.50
2018-02-01T04:12:37.535Z,45.67
2018-02-01T04:15:06.737Z,45.63
2018-02-01T04:17:35.764Z,50.20
2018-02-01T04:20:05.649Z,36.35
2018-02-01T04:22:35.667Z,31.20
2018-02-01T04:25:04.765Z,42.75
2018-02-01T04:27:35.557Z,25.35
2018-02-01T04:30:04.685Z,27.30
2018-02-01T04:32:34.351Z,23.02
2018-02-01T04:35:04.997Z,27.52
2018-02-01T04:37:34.037Z,19.23
2018-02-01T04:40:02.917Z,33.15
2018-02-01T04:42:32.735Z,27.45
2018-02-01T04:45:01.911Z,22.65
2018-02-01T04:47:30.822Z,23.58
2018-02-01T04:50:01.416Z,20.98
2018-02-01T04:52:30.412Z,22.87
2018-02-01T04:54:59.374Z,26.60
2018-02-01T04:57:29.360Z,36.05
2018-02-01T04:59:58.352Z,28.38
2018-02-01T05:02:28.370Z,30.83
2018-02-01T05:04:59.251Z,38.50
2018-02-01T05:07:28.436Z,46.45
2018-02-01T05:09:57.361Z,50.78
2018-02-01T05:12:27.285Z,47.17
2018-02-01T05:14:56.275Z,54.72
2018-02-01T05:17:26.116Z,69.53
2018-02-01T05:20:01.659Z,53.30
2018-02-01T05:22:30.865Z,55.55
2018-02-01T05:25:03.339Z,53.53
2018-02-01T05:27:32.639Z,57.78
2018-02-01T05:30:01.735Z,52.20
2018-02-01T05:32:32.468Z,60.03
2018-02-01T05:35:02.368Z,74.60
2018-02-01T05:37:31.483Z,59.33
2018-02-01T05:40:01.540Z,55.20
2018-02-01T05:42:30.721Z,53.45
2018-02-01T05:44:59.795Z,46.67
2018-02-01T05:47:29.097Z,54.75
2018-02-01T05:49:59.853Z,50.90
2018-02-01T05:52:29.546Z,58.47
2018-02-01T05:54:58.537Z,54.42
2018-02-01T05:57:27.528Z,42.83
2018-02-01T05:59:58.338Z,41.28
2018-02-01T06:02:28.141Z,42.87
2018-02-01T06:04:58.197Z,55.30
2018-02-01T06:07:28.239Z,42.43
2018-02-01T06:09:57.233Z,41.03
2018-02-01T06:12:26.401Z,35.93
2018-02-01T06:14:57.177Z,43.33
2018-02-01T06:17:26.327Z,39.90
2018-02-01T06:19:55.327Z,40.73
2018-02-01T06:22:26.064Z,38.00
2018-02-01T06:24:55.262Z,41.27
2018-02-01T06:27:24.360Z,38.47
2018-02-01T06:29:55.191Z,37.30
2018-02-01T06:32:24.121Z,48.83
2018-02-01T06:34:53.105Z,55.07
2018-02-01T06:37:22.104Z,54.70
2018-02-01T06:39:51.131Z,48.03
2018-02-01T06:42:21.235Z,28.80
2018-02-01T06:44:50.439Z,27.70
2018-02-01T06:47:19.537Z,31.20
2018-02-01T06:49:49.500Z,22.97
2018-02-01T06:52:19.574Z,17.57
2018-02-01T06:54:49.440Z,24.37
2018-02-01T06:57:18.324Z,26.83
2018-02-01T06:59:48.069Z,26.50
2018-02-01T07:02:18.145Z,23.10
2018-02-01T07:04:48.068Z,15.63
2018-02-01T07:07:17.237Z,17.23
2018-02-01T07:09:46.264Z,17.67
2018-02-01T07:12:17.843Z,18.73
2018-02-01T07:14:49.469Z,24.57
2018-02-01T07:17:18.499Z,19.57
2018-02-01T07:19:47.384Z,14.70
2018-02-01T07:22:20.415Z,16.10
2018-02-01T07:24:49.370Z,18.20
2018-02-01T07:27:18.163Z,13.90
2018-02-01T07:29:48.812Z,16.70
2018-02-01T07:32:17.755Z,16.77
2018-02-01T07:34:47.948Z,15.27
2018-02-01T07:37:21.501Z,16.67
2018-02-01T07:39:50.467Z,13.60
2018-02-01T07:42:20.901Z,14.03
2018-02-01T07:44:51.503Z,13.63
2018-02-01T07:47:21.452Z,19.97
2018-02-01T07:49:50.457Z,11.47
2018-02-01T07:52:22.523Z,14.70
2018-02-01T07:54:51.373Z,15.00
2018-02-01T07:57:20.235Z,15.73
2018-02-01T07:59:49.096Z,16.70
2018-02-01T08:02:17.926Z,10.30
2018-02-01T08:04:46.717Z,9.73
2018-02-01T08:07:16.386Z,9.13
2018-02-01T08:09:45.456Z,8.43
2018-02-01T08:12:14.240Z,11.60
2018-02-01T08:14:43.317Z,12.20
2018-02-01T08:17:12.165Z,14.43
2018-02-01T08:19:41.059Z,10.70
2018-02-01T08:22:10.853Z,14.23
2018-02-01T08:24:39.781Z,10.33
2018-02-01T08:27:08.645Z,15.50
2018-02-01T08:29:38.401Z,14.43
2018-02-01T08:32:07.212Z,10.97
2018-02-01T08:34:36.158Z,15.10
2018-02-01T08:37:05.394Z,13.27
2018-02-01T08:39:34.288Z,20.07
2018-02-01T08:42:03.219Z,11.77
2018-02-01T08:44:32.894Z,8.00
2018-02-01T08:47:01.709Z,10.93
2018-02-01T08:49:30.577Z,10.20
2018-02-01T08:52:00.378Z,17.00
2018-02-01T08:54:29.227Z,13.47
2018-02-01T08:56:58.148Z,14.70
2018-02-01T08:59:26.981Z,10.80
2018-02-01T09:01:55.842Z,12.90
2018-02-01T09:04:24.722Z,14.50
2018-02-01T09:06:53.566Z,11.83
2018-02-01T09:09:22.372Z,13.60
2018-02-01T09:11:51.188Z,9.10
2018-02-01T09:14:21.212Z,14.77
2018-02-01T09:16:50.028Z,17.43
2018-02-01T09:19:18.883Z,13.10
2018-02-01T09:21:47.847Z,24.90
2018-02-01T09:24:16.705Z,13.60
2018-02-01T09:26:45.786Z,11.27
2018-02-01T09:29:14.715Z,10.87
2018-02-01T09:31:43.597Z,13.70
2018-02-01T09:34:12.558Z,13.87
2018-02-01T09:36:44.012Z,16.40
2018-02-01T09:39:12.809Z,15.37
2018-02-01T09:45:16.004Z,14.60
2018-02-01T09:47:44.816Z,20.13
2018-02-01T09:50:13.535Z,17.20
2018-02-01T09:52:42.389Z,18.77
2018-02-01T09:55:11.373Z,22.07
2018-02-01T09:57:40.133Z,16.67
2018-02-01T10:00:09.330Z,17.47
2018-02-01T10:02:38.215Z,19.23
2018-02-01T10:05:07.134Z,14.10
2018-02-01T10:07:40.529Z,20.53
2018-02-01T10:10:09.422Z,22.80
2018-02-01T10:12:38.339Z,17.30
2018-02-01T10:15:07.379Z,23.50
2018-02-01T10:17:36.437Z,17.83
2018-02-01T10:20:05.251Z,16.80
2018-02-01T10:22:35.037Z,20.47
2018-02-01T10:25:03.851Z,17.80
2018-02-01T10:27:32.681Z,15.37
2018-02-01T10:30:02.391Z,18.63
2018-02-01T10:32:31.158Z,19.90
2018-02-01T10:35:00.053Z,19.23
2018-02-01T10:37:28.916Z,17.93
2018-02-01T10:39:57.682Z,20.53
2018-02-01T10:42:26.491Z,20.10
2018-02-01T10:44:56.971Z,25.13
2018-02-01T10:47:25.971Z,24.90
2018-02-01T10:49:54.835Z,20.93
2018-02-01T10:52:24.566Z,20.83
2018-02-01T10:54:53.473Z,21.93
2018-02-01T10:57:22.286Z,17.90
2018-02-01T10:59:53.008Z,19.73
2018-02-01T11:02:21.812Z,17.53
2018-02-01T11:04:50.637Z,25.60
2018-02-01T11:07:21.141Z,22.43
2018-02-01T11:09:49.935Z,26.23
2018-02-01T11:12:18.664Z,18.97
2018-02-01T11:14:47.620Z,19.37
2018-02-01T11:17:21.871Z,19.93
2018-02-01T11:19:51.276Z,20.40
2018-02-01T11:22:20.069Z,18.40
2018-02-01T11:24:48.823Z,15.03
2018-02-01T11:27:19.786Z,23.23
2018-02-01T11:29:48.648Z,15.60
2018-02-01T11:32:17.468Z,15.40
2018-02-01T11:34:46.324Z,15.07
2018-02-01T11:37:15.118Z,23.20
2018-02-01T11:39:43.993Z,14.13
2018-02-01T11:42:12.853Z,16.33
2018-02-01T11:44:41.728Z,16.20
2018-02-01T11:47:10.682Z,14.63
2018-02-01T11:49:39.609Z,14.50
2018-02-01T11:52:08.383Z,13.93
2018-02-01T11:54:37.362Z,11.83
2018-02-01T11:57:08.072Z,14.47
2018-02-01T11:59:36.988Z,19.63
2018-02-01T12:02:05.872Z,15.83
2018-02-01T12:04:34.817Z,12.60
2018-02-01T12:07:03.621Z,11.00
2018-02-01T12:09:32.347Z,19.00
2018-02-01T12:12:01.093Z,9.33
2018-02-01T12:14:29.874Z,18.90
2018-02-01T12:16:58.626Z,10.23
2018-02-01T12:19:30.017Z,10.23
2018-02-01T12:21:58.992Z,13.27
2018-02-01T12:24:27.845Z,16.67
2018-02-01T12:26:58.660Z,14.47
2018-02-01T12:29:27.392Z,15.27
2018-02-01T12:31:56.107Z,11.60
2018-02-01T12:34:29.097Z,10.87
2018-02-01T12:36:58.835Z,14.47
2018-02-01T12:39:27.576Z,10.13
2018-02-01T12:41:59.316Z,12.57
2018-02-01T12:44:28.079Z,13.53
2018-02-01T12:46:56.979Z,12.47
2018-02-01T12:49:30.105Z,14.10
2018-02-01T12:51:58.851Z,11.10
2018-02-01T12:54:27.868Z,9.67
2018-02-01T12:57:01.096Z,11.00
2018-02-01T12:59:30.547Z,12.70
2018-02-01T13:01:59.346Z,12.37
2018-02-01T13:04:29.911Z,10.73
2018-02-01T13:06:58.673Z,10.50
2018-02-01T13:09:28.429Z,9.70
2018-02-01T13:11:59.702Z,14.93
2018-02-01T13:14:28.433Z,12.90
2018-02-01T13:16:57.161Z,16.40
2018-02-01T13:19:26.962Z,13.33
2018-02-01T13:21:55.752Z,13.30
2018-02-01T13:24:24.574Z,12.57
2018-02-01T13:26:53.349Z,11.20
2018-02-01T13:29:22.097Z,15.27
2018-02-01T13:31:50.818Z,10.50
2018-02-01T13:34:23.348Z,13.53
2018-02-01T13:36:52.127Z,14.50
2018-02-01T13:39:20.952Z,15.97
2018-02-01T13:41:50.627Z,18.90
2018-02-01T13:44:19.485Z,20.67
2018-02-01T13:46:48.255Z,16.30
2018-02-01T13:49:17.125Z,15.03
2018-02-01T13:51:45.901Z,14.20
2018-02-01T13:54:14.784Z,15.10
2018-02-01T13:56:44.621Z,20.00
2018-02-01T13:59:13.421Z,18.30
2018-02-01T14:01:42.194Z,20.67
2018-02-01T14:04:12.061Z,20.23
2018-02-01T14:06:40.841Z,16.80
2018-02-01T14:09:09.617Z,19.53
2018-02-01T14:11:38.666Z,19.13
2018-02-01T14:14:07.401Z,17.23
2018-02-01T14:16:36.186Z,17.23
2018-02-01T14:19:06.695Z,20.40
2018-02-01T14:21:35.721Z,21.57
2018-02-01T14:24:04.593Z,22.83
2018-02-01T14:26:34.286Z,21.83
2018-02-01T14:29:03.044Z,16.80
2018-02-01T14:31:31.792Z,21.67
2018-02-01T14:34:00.657Z,23.13
2018-02-01T14:36:29.454Z,20.10
2018-02-01T14:38:58.250Z,25.47
2018-02-01T14:41:27.879Z,28.70
2018-02-01T14:43:56.654Z,33.50
2018-02-01T14:46:26.187Z,25.80
2018-02-01T14:48:57.287Z,33.90
2018-02-01T14:51:26.222Z,39.83
2018-02-01T14:53:55.142Z,25.03
2018-02-01T14:56:24.060Z,28.80
2018-02-01T14:58:52.831Z,24.23
2018-02-01T15:01:21.726Z,25.53
2018-02-01T15:03:50.476Z,23.17
2018-02-01T15:06:19.224Z,23.67
2018-02-01T15:08:48.082Z,26.00
2018-02-01T15:11:18.188Z,28.93
2018-02-01T15:13:46.985Z,28.90
2018-02-01T15:16:15.845Z,27.50
2018-02-01T15:18:46.472Z,27.17
2018-02-01T15:21:17.629Z,26.53
2018-02-01T15:23:46.367Z,27.73
2018-02-01T15:26:15.155Z,33.27
2018-02-01T15:28:43.881Z,41.83
2018-02-01T15:31:12.625Z,35.80
2018-02-01T15:33:43.132Z,58.27
2018-02-01T15:36:11.925Z,41.47
2018-02-01T15:38:40.704Z,35.43
2018-02-01T15:41:09.750Z,40.50
2018-02-01T15:43:38.508Z,30.70
2018-02-01T15:46:07.304Z,32.57
2018-02-01T15:48:37.867Z,39.30
2018-02-01T15:51:06.699Z,32.70
2018-02-01T15:53:35.468Z,35.23
2018-02-01T15:56:04.444Z,27.80
2018-02-01T15:58:33.228Z,36.03
2018-02-01T16:01:02.011Z,37.03
2018-02-01T16:03:31.013Z,35.90
2018-02-01T16:05:59.757Z,49.40
2018-02-01T16:08:28.507Z,43.87
2018-02-01T16:10:59.988Z,44.40
2018-02-01T16:13:28.769Z,50.47
2018-02-01T16:15:57.516Z,49.93
2018-02-01T16:18:30.644Z,55.77
2018-02-01T16:20:59.467Z,54.97
2018-02-01T16:23:28.192Z,49.77
2018-02-01T16:25:57.880Z,53.67
2018-02-01T16:28:28.567Z,51.27
2018-02-01T16:30:57.427Z,74.77
2018-02-01T16:33:27.425Z,79.33
2018-02-01T16:35:56.227Z,63.27
2018-02-01T16:38:25.013Z,60.70
2018-02-01T16:40:54.685Z,45.13
2018-02-01T16:43:27.558Z,42.10
2018-02-01T16:45:56.332Z,46.50
2018-02-01T16:48:25.082Z,50.27
2018-02-01T16:50:53.995Z,50.27
2018-02-01T16:53:22.917Z,50.67
2018-02-01T16:55:51.680Z,56.97
2018-02-01T16:58:20.549Z,54.87
2018-02-01T17:00:50.200Z,64.40
2018-02-01T17:03:18.951Z,64.17
2018-02-01T17:05:47.911Z,66.23
2018-02-01T17:08:18.524Z,56.67
2018-02-01T17:10:47.282Z,78.33
2018-02-01T17:13:16.077Z,85.70
2018-02-01T17:15:46.528Z,69.33
2018-02-01T17:18:19.081Z,77.53
2018-02-01T17:20:48.026Z,86.93
2018-02-01T17:23:18.218Z,86.80
2018-02-01T17:25:47.032Z,78.93
2018-02-01T17:28:15.948Z,71.70
2018-02-01T17:30:44.801Z,63.07
2018-02-01T17:33:13.522Z,60.73
2018-02-01T17:35:43.922Z,64.50
2018-02-01T17:38:16.894Z,71.90
2018-02-01T17:40:45.751Z,61.63
2018-02-01T17:43:17.896Z,64.07
2018-02-01T17:45:46.753Z,77.00
2018-02-01T17:48:15.610Z,72.53
2018-02-01T17:50:44.396Z,71.07
2018-02-01T17:53:13.238Z,74.23
2018-02-01T17:55:42.024Z,82.20
2018-02-01T17:58:10.833Z,88.20
2018-02-01T18:00:40.468Z,82.63
2018-02-01T18:03:09.239Z,74.90
2018-02-01T18:05:38.213Z,64.53
2018-02-01T18:08:07.049Z,71.43
2018-02-01T18:10:35.883Z,61.77
2018-02-01T18:13:04.683Z,58.60
2018-02-01T18:15:36.912Z,83.93
2018-02-01T18:18:05.702Z,79.10
2018-02-01T18:20:34.502Z,76.70
2018-02-01T18:23:04.331Z,58.23
2018-02-01T18:25:43.789Z,80.17
2018-02-01T18:28:14.470Z,83.90
2018-02-01T18:30:43.222Z,72.40
2018-02-01T18:33:12.101Z,76.90
2018-02-01T18:35:41.059Z,98.47
2018-02-01T18:38:09.862Z,82.10
2018-02-01T18:40:45.404Z,51.40
2018-02-01T18:43:18.658Z,50.53
2018-02-01T18:45:48.237Z,55.33
2018-02-01T18:48:17.029Z,90.40
2018-02-01T18:50:45.869Z,67.07
2018-02-01T18:53:14.690Z,55.23
2018-02-01T18:55:44.060Z,50.87
2018-02-01T18:58:12.847Z,48.60
2018-02-01T19:00:43.938Z,46.53
2018-02-01T19:03:13.061Z,57.37
2018-02-01T19:05:42.039Z,56.87
2018-02-01T19:08:11.259Z,52.40
2018-02-01T19:10:40.174Z,52.53
2018-02-01T19:13:09.012Z,42.97
2018-02-01T19:15:37.955Z,47.63
2018-02-01T19:18:06.798Z,48.93
2018-02-01T19:20:36.697Z,48.07
2018-02-01T19:23:06.556Z,46.90
2018-02-01T19:25:35.368Z,55.03
2018-02-01T19:28:04.256Z,53.23
2018-02-01T19:30:33.988Z,72.17
2018-02-01T19:33:02.852Z,54.90
2018-02-01T19:35:31.640Z,67.50
2018-02-01T19:38:00.713Z,67.17
2018-02-01T19:40:30.147Z,52.57
2018-02-01T19:42:58.967Z,38.40
2018-02-01T19:45:27.898Z,41.00
2018-02-01T19:47:56.823Z,36.40
2018-02-01T19:50:25.673Z,55.60
2018-02-01T19:52:55.749Z,40.50
2018-02-01T19:55:24.643Z,49.37
2018-02-01T19:57:53.425Z,45.37
2018-02-01T20:00:22.355Z,43.03
2018-02-01T20:02:51.201Z,45.87
2018-02-01T20:05:20.109Z,49.93
2018-02-01T20:07:50.686Z,52.70
2018-02-01T20:10:19.575Z,53.93
2018-02-01T20:12:48.368Z,54.03
2018-02-01T20:15:17.279Z,54.33
2018-02-01T20:17:47.832Z,60.37
2018-02-01T20:20:17.093Z,54.17
2018-02-01T20:25:20.303Z,52.00
2018-02-01T20:27:51.006Z,47.20
2018-02-01T20:30:19.792Z,49.07
2018-02-01T20:32:48.694Z,47.37
2018-02-01T20:35:17.639Z,43.43
2018-02-01T20:37:46.529Z,48.43
2018-02-01T20:40:15.383Z,43.93
2018-02-01T20:42:44.665Z,54.43
2018-02-01T20:45:13.481Z,52.30
2018-02-01T20:47:42.413Z,50.10
2018-02-01T20:50:11.267Z,46.20
2018-02-01T20:52:40.272Z,48.47
2018-02-01T20:55:09.087Z,47.13
2018-02-01T20:57:38.843Z,54.23
2018-02-01T21:00:07.651Z,51.00
2018-02-01T21:02:36.486Z,57.57
2018-02-01T21:05:05.682Z,52.13
2018-02-01T21:07:34.567Z,56.20
2018-02-01T21:10:03.415Z,55.33
2018-02-01T21:12:32.461Z,56.03
2018-02-01T21:15:01.300Z,62.60
2018-02-01T21:17:30.167Z,68.03
2018-02-01T21:20:03.750Z,75.10
2018-02-01T21:22:32.574Z,59.60
2018-02-01T21:25:01.359Z,66.27
2018-02-01T21:27:31.156Z,62.63
2018-02-01T21:29:59.952Z,65.03
2018-02-01T21:32:28.738Z,57.97
2018-02-01T21:34:57.657Z,73.43
2018-02-01T21:37:26.494Z,77.60
2018-02-01T21:39:55.670Z,72.27
2018-02-01T21:42:26.992Z,72.40
2018-02-01T21:44:55.894Z,67.20
2018-02-01T21:47:24.710Z,72.60
2018-02-01T21:49:55.204Z,73.77
2018-02-01T21:52:24.091Z,65.87
2018-02-01T21:54:52.965Z,64.03
2018-02-01T21:57:24.772Z,62.57
2018-02-01T21:59:53.664Z,63.60
2018-02-01T22:02:22.569Z,67.43
2018-02-01T22:04:53.325Z,61.90
2018-02-01T22:07:22.161Z,53.77
2018-02-01T22:09:51.265Z,66.83
2018-02-01T22:12:21.816Z,90.57
2018-02-01T22:14:53.253Z,97.33
2018-02-01T22:17:24.190Z,91.97
2018-02-01T22:19:55.030Z,81.07
2018-02-01T22:22:24.299Z,68.63
2018-02-01T22:24:53.286Z,61.73
2018-02-01T22:27:23.481Z,70.77
2018-02-01T22:29:52.615Z,55.03
2018-02-01T22:32:24.099Z,57.40
2018-02-01T22:34:54.116Z,52.20
2018-02-01T22:37:22.970Z,48.47
2018-02-01T22:39:53.751Z,42.77
2018-02-01T22:42:22.919Z,38.33
2018-02-01T22:44:51.941Z,45.13
2018-02-01T22:47:24.411Z,46.57
2018-02-01T22:49:54.432Z,37.87
2018-02-01T22:52:24.309Z,36.33
2018-02-01T22:54:53.340Z,37.90
2018-02-01T22:57:23.083Z,31.40
2018-02-01T22:59:52.305Z,35.07
2018-02-01T23:02:22.268Z,33.43
2018-02-01T23:04:52.179Z,34.03
2018-02-01T23:07:23.006Z,29.87
2018-02-01T23:09:52.607Z,29.80
2018-02-01T23:12:26.020Z,30.53
2018-02-01T23:14:56.418Z,32.27
2018-02-01T23:17:25.526Z,37.27
2018-02-01T23:19:58.946Z,33.23
2018-02-01T23:22:31.672Z,31.17
2018-02-01T23:25:01.653Z,28.10
2018-02-01T23:27:31.154Z,31.73
2018-02-01T23:30:00.473Z,31.50
2018-02-01T23:32:30.450Z,37.83
2018-02-01T23:35:00.669Z,37.60
2018-02-01T23:37:30.222Z,35.10
2018-02-01T23:40:02.168Z,44.97
2018-02-01T23:42:31.361Z,33.33
2018-02-01T23:45:00.558Z,36.47
2018-02-01T23:47:30.161Z,36.97
2018-02-01T23:49:59.227Z,35.87
2018-02-01T23:52:28.391Z,31.97
2018-02-01T23:54:59.842Z,29.37
2018-02-01T23:57:29.565Z,27.10
